sensor_id;sensor_type;location;lat;lon;timestamp;pressure;altitude;pressure_sealevel;temperature;humidity
37892;BME280;45797;47.466;9.486;2022-12-07T00:05:03;95780.13;;;6.06;70.65
37892;BME280;45797;47.466;9.486;2022-12-07T00:10:06;95764.94;;;6.14;70.73
37892;BME280;45797;47.466;9.486;2022-12-07T00:15:09;95761.50;;;6.14;70.38
37892;BME280;45797;47.466;9.486;2022-12-07T00:20:10;95762.25;;;6.16;70.21
37892;BME280;45797;47.466;9.486;2022-12-07T00:25:17;95765.88;;;6.13;70.35
37892;BME280;45797;47.466;9.486;2022-12-07T00:30:18;95761.69;;;6.11;70.39
37892;BME280;45797;47.466;9.486;2022-12-07T00:35:28;95762.44;;;6.13;70.33
37892;BME280;45797;47.466;9.486;2022-12-07T00:40:28;95759.75;;;6.14;70.54
37892;BME280;45797;47.466;9.486;2022-12-07T00:45:29;95760.25;;;6.21;70.53
37892;BME280;45797;47.466;9.486;2022-12-07T00:50:38;95761.94;;;6.22;70.21
37892;BME280;45797;47.466;9.486;2022-12-07T00:55:44;95758.16;;;6.27;70.27
37892;BME280;45797;47.466;9.486;2022-12-07T01:01:01;95752.03;;;6.28;70.47
37892;BME280;45797;47.466;9.486;2022-12-07T01:06:04;95757.75;;;6.35;70.12
37892;BME280;45797;47.466;9.486;2022-12-07T01:11:07;95758.31;;;6.40;70.10
37892;BME280;45797;47.466;9.486;2022-12-07T01:16:10;95758.97;;;6.44;70.52
37892;BME280;45797;47.466;9.486;2022-12-07T01:21:16;95771.06;;;6.45;69.83
37892;BME280;45797;47.466;9.486;2022-12-07T01:26:19;95770.97;;;6.46;70.53
37892;BME280;45797;47.466;9.486;2022-12-07T01:31:23;95767.53;;;6.46;70.45
37892;BME280;45797;47.466;9.486;2022-12-07T01:36:33;95774.00;;;6.39;70.51
37892;BME280;45797;47.466;9.486;2022-12-07T01:41:41;95769.63;;;6.39;70.50
37892;BME280;45797;47.466;9.486;2022-12-07T01:47:01;95771.63;;;6.34;70.37
37892;BME280;45797;47.466;9.486;2022-12-07T01:57:31;95777.63;;;6.20;70.91
37892;BME280;45797;47.466;9.486;2022-12-07T02:02:41;95774.78;;;6.09;70.87
37892;BME280;45797;47.466;9.486;2022-12-07T02:07:56;95771.00;;;5.99;70.96
37892;BME280;45797;47.466;9.486;2022-12-07T02:13:03;95772.50;;;6.03;71.05
37892;BME280;45797;47.466;9.486;2022-12-07T02:18:12;95771.47;;;6.06;70.77
37892;BME280;45797;47.466;9.486;2022-12-07T02:35:19;95756.81;;;5.89;71.45
37892;BME280;45797;47.466;9.486;2022-12-07T02:40:11;95751.75;;;5.86;70.94
37892;BME280;45797;47.466;9.486;2022-12-07T02:45:22;95760.53;;;5.67;71.06
37892;BME280;45797;47.466;9.486;2022-12-07T02:50:26;95758.38;;;5.60;71.53
37892;BME280;45797;47.466;9.486;2022-12-07T02:55:32;95766.66;;;5.66;71.47
37892;BME280;45797;47.466;9.486;2022-12-07T03:00:41;95763.31;;;5.64;71.14
37892;BME280;45797;47.466;9.486;2022-12-07T03:06:20;95768.72;;;5.44;71.51
37892;BME280;45797;47.466;9.486;2022-12-07T03:11:49;95765.47;;;5.23;72.38
37892;BME280;45797;47.466;9.486;2022-12-07T03:16:58;95763.56;;;5.27;71.96
37892;BME280;45797;47.466;9.486;2022-12-07T03:22:05;95762.31;;;5.34;72.39
37892;BME280;45797;47.466;9.486;2022-12-07T03:27:15;95763.00;;;5.37;71.98
37892;BME280;45797;47.466;9.486;2022-12-07T03:32:43;95761.03;;;5.25;71.81
37892;BME280;45797;47.466;9.486;2022-12-07T03:43:07;95752.25;;;5.28;71.84
37892;BME280;45797;47.466;9.486;2022-12-07T03:53:16;95746.84;;;5.48;71.81
37892;BME280;45797;47.466;9.486;2022-12-07T03:58:35;95758.31;;;5.44;71.75
37892;BME280;45797;47.466;9.486;2022-12-07T04:03:36;95753.72;;;5.49;71.80
37892;BME280;45797;47.466;9.486;2022-12-07T04:08:49;95744.78;;;5.55;71.50
37892;BME280;45797;47.466;9.486;2022-12-07T04:14:02;95750.72;;;5.57;71.56
37892;BME280;45797;47.466;9.486;2022-12-07T04:19:23;95756.31;;;5.49;71.50
37892;BME280;45797;47.466;9.486;2022-12-07T04:24:26;95759.34;;;5.57;72.15
37892;BME280;45797;47.466;9.486;2022-12-07T04:29:41;95759.03;;;5.63;71.80
37892;BME280;45797;47.466;9.486;2022-12-07T04:34:48;95750.97;;;5.68;71.49
37892;BME280;45797;47.466;9.486;2022-12-07T04:39:48;95756.94;;;5.70;71.55
37892;BME280;45797;47.466;9.486;2022-12-07T04:44:51;95757.78;;;5.70;71.33
37892;BME280;45797;47.466;9.486;2022-12-07T04:49:52;95758.63;;;5.71;71.25
37892;BME280;45797;47.466;9.486;2022-12-07T04:54:57;95766.34;;;5.72;71.74
37892;BME280;45797;47.466;9.486;2022-12-07T05:00:03;95761.22;;;5.71;71.38
37892;BME280;45797;47.466;9.486;2022-12-07T05:05:21;95769.25;;;5.66;71.67
37892;BME280;45797;47.466;9.486;2022-12-07T05:10:33;95772.78;;;5.65;71.52
37892;BME280;45797;47.466;9.486;2022-12-07T05:15:35;95771.41;;;5.58;71.83
37892;BME280;45797;47.466;9.486;2022-12-07T05:20:35;95768.59;;;5.63;72.12
37892;BME280;45797;47.466;9.486;2022-12-07T05:25:38;95763.91;;;5.69;71.73
37892;BME280;45797;47.466;9.486;2022-12-07T05:30:39;95764.66;;;5.71;71.46
37892;BME280;45797;47.466;9.486;2022-12-07T05:35:40;95761.03;;;5.74;71.83
37892;BME280;45797;47.466;9.486;2022-12-07T05:40:40;95753.03;;;5.79;71.68
37892;BME280;45797;47.466;9.486;2022-12-07T05:45:45;95756.19;;;5.84;71.53
37892;BME280;45797;47.466;9.486;2022-12-07T05:50:48;95756.03;;;5.87;71.50
37892;BME280;45797;47.466;9.486;2022-12-07T05:55:49;95763.06;;;5.85;71.61
37892;BME280;45797;47.466;9.486;2022-12-07T06:00:53;95768.13;;;5.88;71.64
37892;BME280;45797;47.466;9.486;2022-12-07T06:05:55;95769.09;;;5.85;71.57
37892;BME280;45797;47.466;9.486;2022-12-07T06:10:56;95766.41;;;5.87;71.51
37892;BME280;45797;47.466;9.486;2022-12-07T06:16:28;95775.13;;;5.86;71.62
37892;BME280;45797;47.466;9.486;2022-12-07T06:21:41;95777.72;;;5.86;71.11
37892;BME280;45797;47.466;9.486;2022-12-07T06:26:42;95778.50;;;5.88;71.73
37892;BME280;45797;47.466;9.486;2022-12-07T06:31:42;95778.56;;;5.86;71.64
37892;BME280;45797;47.466;9.486;2022-12-07T06:36:43;95779.41;;;5.87;71.40
37892;BME280;45797;47.466;9.486;2022-12-07T06:41:45;95776.75;;;5.88;71.41
37892;BME280;45797;47.466;9.486;2022-12-07T06:46:49;95781.13;;;5.88;71.45
37892;BME280;45797;47.466;9.486;2022-12-07T06:51:49;95780.59;;;5.81;71.70
37892;BME280;45797;47.466;9.486;2022-12-07T06:56:50;95776.91;;;5.85;71.60
37892;BME280;45797;47.466;9.486;2022-12-07T07:01:50;95780.19;;;5.89;71.85
37892;BME280;45797;47.466;9.486;2022-12-07T07:06:56;95783.41;;;5.94;71.35
37892;BME280;45797;47.466;9.486;2022-12-07T07:11:57;95786.09;;;5.92;71.59
37892;BME280;45797;47.466;9.486;2022-12-07T07:17:05;95787.66;;;5.95;71.79
37892;BME280;45797;47.466;9.486;2022-12-07T07:22:07;95784.94;;;5.98;71.68
37892;BME280;45797;47.466;9.486;2022-12-07T07:27:23;95785.16;;;5.93;71.26
37892;BME280;45797;47.466;9.486;2022-12-07T07:32:56;95783.31;;;5.95;71.65
37892;BME280;45797;47.466;9.486;2022-12-07T07:38:11;95782.06;;;6.03;71.65
37892;BME280;45797;47.466;9.486;2022-12-07T07:43:48;95788.59;;;5.94;71.52
37892;BME280;45797;47.466;9.486;2022-12-07T07:48:49;95782.06;;;6.03;71.74
37892;BME280;45797;47.466;9.486;2022-12-07T07:53:49;95794.81;;;6.07;71.40
37892;BME280;45797;47.466;9.486;2022-12-07T07:58:58;95798.66;;;6.16;70.86
37892;BME280;45797;47.466;9.486;2022-12-07T08:05:28;95803.84;;;6.16;71.09
37892;BME280;45797;47.466;9.486;2022-12-07T08:11:44;95808.56;;;6.25;71.18
37892;BME280;45797;47.466;9.486;2022-12-07T08:17:07;95804.22;;;6.25;70.72
37892;BME280;45797;47.466;9.486;2022-12-07T08:23:11;95796.94;;;6.16;71.38
37892;BME280;45797;47.466;9.486;2022-12-07T08:28:28;95799.84;;;6.10;71.35
37892;BME280;45797;47.466;9.486;2022-12-07T08:33:30;95804.13;;;6.11;71.67
37892;BME280;45797;47.466;9.486;2022-12-07T08:39:02;95810.69;;;6.18;71.47
37892;BME280;45797;47.466;9.486;2022-12-07T08:44:12;95804.97;;;6.27;71.10
37892;BME280;45797;47.466;9.486;2022-12-07T08:49:25;95799.41;;;6.34;71.14
37892;BME280;45797;47.466;9.486;2022-12-07T08:54:29;95800.75;;;6.41;70.82
37892;BME280;45797;47.466;9.486;2022-12-07T08:59:33;95804.88;;;6.45;71.44
37892;BME280;45797;47.466;9.486;2022-12-07T09:04:49;95799.31;;;6.51;70.65
37892;BME280;45797;47.466;9.486;2022-12-07T09:09:50;95804.94;;;6.59;70.93
37892;BME280;45797;47.466;9.486;2022-12-07T09:14:50;95804.94;;;6.59;71.35
37892;BME280;45797;47.466;9.486;2022-12-07T09:19:57;95806.09;;;6.69;71.03
37892;BME280;45797;47.466;9.486;2022-12-07T09:25:14;95814.09;;;6.66;70.76
37892;BME280;45797;47.466;9.486;2022-12-07T09:30:22;95818.59;;;6.63;71.22
37892;BME280;45797;47.466;9.486;2022-12-07T09:35:23;95817.38;;;6.54;71.43
37892;BME280;45797;47.466;9.486;2022-12-07T09:40:23;95821.66;;;6.55;71.62
37892;BME280;45797;47.466;9.486;2022-12-07T09:45:33;95817.19;;;6.57;71.20
37892;BME280;45797;47.466;9.486;2022-12-07T09:50:36;95818.88;;;6.58;71.78
37892;BME280;45797;47.466;9.486;2022-12-07T09:55:46;95812.91;;;6.56;71.51
37892;BME280;45797;47.466;9.486;2022-12-07T10:00:50;95816.09;;;6.61;71.52
37892;BME280;45797;47.466;9.486;2022-12-07T10:05:53;95796.94;;;6.62;71.84
37892;BME280;45797;47.466;9.486;2022-12-07T10:10:55;95797.31;;;6.56;71.17
37892;BME280;45797;47.466;9.486;2022-12-07T10:22:20;95777.34;;;6.25;72.12
37892;BME280;45797;47.466;9.486;2022-12-07T10:27:29;95775.44;;;6.28;71.81
37892;BME280;45797;47.466;9.486;2022-12-07T10:32:35;95775.03;;;6.36;72.15
37892;BME280;45797;47.466;9.486;2022-12-07T10:37:45;95761.03;;;6.53;71.88
37892;BME280;45797;47.466;9.486;2022-12-07T10:43:05;95763.72;;;6.67;70.90
37892;BME280;45797;47.466;9.486;2022-12-07T10:48:16;95761.91;;;6.83;70.38
37892;BME280;45797;47.466;9.486;2022-12-07T11:04:12;95738.81;;;6.47;71.87
37892;BME280;45797;47.466;9.486;2022-12-07T11:36:30;95721.72;;;5.97;72.05
37892;BME280;45797;47.466;9.486;2022-12-07T11:41:35;95712.28;;;5.95;72.24
37892;BME280;45797;47.466;9.486;2022-12-07T11:47:02;95708.25;;;6.05;72.17
37892;BME280;45797;47.466;9.486;2022-12-07T11:52:17;95706.50;;;6.21;71.69
37892;BME280;45797;47.466;9.486;2022-12-07T11:57:44;95699.84;;;6.32;71.51
37892;BME280;45797;47.466;9.486;2022-12-07T12:08:28;95694.59;;;6.47;71.36
37892;BME280;45797;47.466;9.486;2022-12-07T12:24:31;95675.78;;;6.72;70.98
37892;BME280;45797;47.466;9.486;2022-12-07T12:29:52;95678.59;;;6.69;70.98
37892;BME280;45797;47.466;9.486;2022-12-07T12:45:31;95664.97;;;6.94;70.08
37892;BME280;45797;47.466;9.486;2022-12-07T12:50:45;95659.75;;;6.94;70.55
37892;BME280;45797;47.466;9.486;2022-12-07T13:01:40;95655.75;;;7.03;70.24
37892;BME280;45797;47.466;9.486;2022-12-07T13:06:48;95653.91;;;7.05;70.09
37892;BME280;45797;47.466;9.486;2022-12-07T13:11:49;95639.66;;;7.10;69.98
37892;BME280;45797;47.466;9.486;2022-12-07T13:17:00;95646.47;;;7.13;70.26
37892;BME280;45797;47.466;9.486;2022-12-07T13:22:53;95648.88;;;7.16;70.10
37892;BME280;45797;47.466;9.486;2022-12-07T13:28:02;95638.25;;;7.19;70.05
37892;BME280;45797;47.466;9.486;2022-12-07T13:33:04;95634.34;;;7.26;69.74
37892;BME280;45797;47.466;9.486;2022-12-07T13:38:15;95630.66;;;7.30;69.77
37892;BME280;45797;47.466;9.486;2022-12-07T13:43:17;95630.25;;;7.36;70.35
37892;BME280;45797;47.466;9.486;2022-12-07T13:54:00;95613.31;;;7.43;69.53
37892;BME280;45797;47.466;9.486;2022-12-07T13:59:20;95613.94;;;7.47;69.64
37892;BME280;45797;47.466;9.486;2022-12-07T14:09:29;95603.13;;;7.53;69.29
37892;BME280;45797;47.466;9.486;2022-12-07T14:14:31;95590.00;;;7.55;69.73
37892;BME280;45797;47.466;9.486;2022-12-07T14:19:48;95595.22;;;7.55;69.38
37892;BME280;45797;47.466;9.486;2022-12-07T14:24:51;95600.19;;;7.45;69.81
37892;BME280;45797;47.466;9.486;2022-12-07T14:29:58;95598.25;;;7.34;70.53
37892;BME280;45797;47.466;9.486;2022-12-07T14:35:20;95596.78;;;7.30;70.00
37892;BME280;45797;47.466;9.486;2022-12-07T14:40:24;95598.72;;;7.27;70.03
37892;BME280;45797;47.466;9.486;2022-12-07T14:45:28;95605.63;;;7.13;70.53
37892;BME280;45797;47.466;9.486;2022-12-07T14:50:43;95602.91;;;7.01;70.37
37892;BME280;45797;47.466;9.486;2022-12-07T14:55:45;95594.94;;;7.04;70.42
37892;BME280;45797;47.466;9.486;2022-12-07T15:00:45;95597.56;;;7.04;70.46
37892;BME280;45797;47.466;9.486;2022-12-07T15:05:48;95603.69;;;7.03;70.32
37892;BME280;45797;47.466;9.486;2022-12-07T15:10:59;95600.41;;;6.99;70.54
37892;BME280;45797;47.466;9.486;2022-12-07T15:15:59;95594.00;;;6.91;70.59
37892;BME280;45797;47.466;9.486;2022-12-07T15:21:01;95599.31;;;6.89;70.74
37892;BME280;45797;47.466;9.486;2022-12-07T15:26:02;95597.75;;;6.86;70.54
37892;BME280;45797;47.466;9.486;2022-12-07T15:31:14;95599.22;;;6.76;70.72
37892;BME280;45797;47.466;9.486;2022-12-07T15:36:24;95602.03;;;6.73;70.75
37892;BME280;45797;47.466;9.486;2022-12-07T15:41:27;95608.22;;;6.71;70.86
37892;BME280;45797;47.466;9.486;2022-12-07T15:46:37;95592.72;;;6.69;70.33
37892;BME280;45797;47.466;9.486;2022-12-07T15:51:40;95602.81;;;6.59;71.36
37892;BME280;45797;47.466;9.486;2022-12-07T15:56:48;95597.53;;;6.47;71.50
37892;BME280;45797;47.466;9.486;2022-12-07T16:01:49;95592.88;;;6.38;71.52
37892;BME280;45797;47.466;9.486;2022-12-07T16:07:00;95591.53;;;6.16;72.06
37892;BME280;45797;47.466;9.486;2022-12-07T16:12:01;95583.84;;;5.99;72.23
37892;BME280;45797;47.466;9.486;2022-12-07T16:17:06;95585.22;;;5.90;72.18
37892;BME280;45797;47.466;9.486;2022-12-07T16:22:06;95582.94;;;5.84;72.58
37892;BME280;45797;47.466;9.486;2022-12-07T16:27:23;95580.84;;;5.91;72.15
37892;BME280;45797;47.466;9.486;2022-12-07T16:32:42;95580.34;;;6.00;71.61
37892;BME280;45797;47.466;9.486;2022-12-07T16:37:47;95573.56;;;6.12;71.40
37892;BME280;45797;47.466;9.486;2022-12-07T16:42:52;95574.06;;;6.18;71.77
37892;BME280;45797;47.466;9.486;2022-12-07T16:47:53;95571.19;;;6.23;71.45
37892;BME280;45797;47.466;9.486;2022-12-07T16:53:11;95565.16;;;6.22;71.22
37892;BME280;45797;47.466;9.486;2022-12-07T16:58:15;95573.34;;;6.30;71.35
37892;BME280;45797;47.466;9.486;2022-12-07T17:03:17;95565.53;;;6.30;71.35
37892;BME280;45797;47.466;9.486;2022-12-07T17:13:53;95560.34;;;6.30;71.16
37892;BME280;45797;47.466;9.486;2022-12-07T17:19:15;95560.44;;;6.29;71.29
37892;BME280;45797;47.466;9.486;2022-12-07T17:24:19;95558.56;;;6.31;71.53
37892;BME280;45797;47.466;9.486;2022-12-07T17:29:19;95555.03;;;6.32;71.54
37892;BME280;45797;47.466;9.486;2022-12-07T17:34:27;95551.50;;;6.33;71.64
37892;BME280;45797;47.466;9.486;2022-12-07T17:39:29;95547.91;;;6.36;71.33
37892;BME280;45797;47.466;9.486;2022-12-07T17:44:49;95550.88;;;6.29;71.43
37892;BME280;45797;47.466;9.486;2022-12-07T17:49:49;95550.69;;;6.33;71.59
37892;BME280;45797;47.466;9.486;2022-12-07T17:54:53;95549.84;;;6.32;71.17
37892;BME280;45797;47.466;9.486;2022-12-07T18:00:04;95538.78;;;6.28;70.80
37892;BME280;45797;47.466;9.486;2022-12-07T18:05:13;95537.13;;;6.27;71.24
37892;BME280;45797;47.466;9.486;2022-12-07T18:10:20;95524.22;;;6.26;71.42
37892;BME280;45797;47.466;9.486;2022-12-07T18:15:21;95523.38;;;6.25;71.39
37892;BME280;45797;47.466;9.486;2022-12-07T18:20:24;95522.25;;;6.29;71.60
37892;BME280;45797;47.466;9.486;2022-12-07T18:25:24;95530.25;;;6.26;71.59
37892;BME280;45797;47.466;9.486;2022-12-07T18:30:31;95525.06;;;6.26;71.27
37892;BME280;45797;47.466;9.486;2022-12-07T18:35:33;95523.38;;;6.25;71.45
37892;BME280;45797;47.466;9.486;2022-12-07T18:40:37;95518.81;;;6.29;71.63
37892;BME280;45797;47.466;9.486;2022-12-07T18:45:39;95518.19;;;6.25;71.60
37892;BME280;45797;47.466;9.486;2022-12-07T18:50:43;95512.78;;;6.28;71.63
37892;BME280;45797;47.466;9.486;2022-12-07T18:55:47;95511.94;;;6.28;71.55
37892;BME280;45797;47.466;9.486;2022-12-07T19:00:55;95519.09;;;6.24;71.24
37892;BME280;45797;47.466;9.486;2022-12-07T19:05:56;95513.88;;;6.24;71.35
37892;BME280;45797;47.466;9.486;2022-12-07T19:10:59;95512.97;;;6.25;71.42
37892;BME280;45797;47.466;9.486;2022-12-07T19:16:21;95507.78;;;6.25;71.44
37892;BME280;45797;47.466;9.486;2022-12-07T19:21:21;95503.47;;;6.24;71.23
37892;BME280;45797;47.466;9.486;2022-12-07T19:26:41;95494.31;;;6.19;71.46
37892;BME280;45797;47.466;9.486;2022-12-07T19:31:51;95487.25;;;6.21;71.53
37892;BME280;45797;47.466;9.486;2022-12-07T19:36:52;95489.75;;;6.22;71.60
37892;BME280;45797;47.466;9.486;2022-12-07T19:42:11;95489.19;;;6.17;71.59
37892;BME280;45797;47.466;9.486;2022-12-07T19:47:13;95494.22;;;6.20;71.43
37892;BME280;45797;47.466;9.486;2022-12-07T19:52:20;95488.91;;;6.22;71.48
37892;BME280;45797;47.466;9.486;2022-12-07T19:57:36;95478.81;;;6.17;71.26
37892;BME280;45797;47.466;9.486;2022-12-07T20:02:36;95469.97;;;6.20;71.70
37892;BME280;45797;47.466;9.486;2022-12-07T20:07:50;95469.03;;;6.21;71.72
37892;BME280;45797;47.466;9.486;2022-12-07T20:12:53;95461.16;;;6.22;71.61
37892;BME280;45797;47.466;9.486;2022-12-07T20:18:33;95465.88;;;6.16;71.21
37892;BME280;45797;47.466;9.486;2022-12-07T20:23:35;95462.06;;;6.21;71.41
37892;BME280;45797;47.466;9.486;2022-12-07T20:28:36;95460.31;;;6.22;71.42
37892;BME280;45797;47.466;9.486;2022-12-07T20:33:38;95448.03;;;6.24;71.45
37892;BME280;45797;47.466;9.486;2022-12-07T20:38:41;95450.38;;;6.28;71.31
37892;BME280;45797;47.466;9.486;2022-12-07T20:43:42;95439.97;;;6.28;71.36
37892;BME280;45797;47.466;9.486;2022-12-07T20:48:45;95444.97;;;6.32;71.33
37892;BME280;45797;47.466;9.486;2022-12-07T20:53:51;95443.13;;;6.34;71.02
37892;BME280;45797;47.466;9.486;2022-12-07T20:59:12;95442.47;;;6.30;71.18
37892;BME280;45797;47.466;9.486;2022-12-07T21:04:13;95442.28;;;6.33;71.27
37892;BME280;45797;47.466;9.486;2022-12-07T21:09:15;95447.38;;;6.35;71.20
37892;BME280;45797;47.466;9.486;2022-12-07T21:14:43;95439.97;;;6.28;71.06
37892;BME280;45797;47.466;9.486;2022-12-07T21:19:43;95436.34;;;6.31;71.07
37892;BME280;45797;47.466;9.486;2022-12-07T21:24:44;95434.59;;;6.32;71.07
37892;BME280;45797;47.466;9.486;2022-12-07T21:29:44;95431.97;;;6.32;70.79
37892;BME280;45797;47.466;9.486;2022-12-07T21:34:45;95413.78;;;6.32;70.68
37892;BME280;45797;47.466;9.486;2022-12-07T21:39:47;95419.19;;;6.28;70.78
37892;BME280;45797;47.466;9.486;2022-12-07T21:44:47;95415.00;;;6.26;70.69
37892;BME280;45797;47.466;9.486;2022-12-07T21:49:49;95420.22;;;6.26;70.70
37892;BME280;45797;47.466;9.486;2022-12-07T21:54:58;95419.53;;;6.22;69.95
37892;BME280;45797;47.466;9.486;2022-12-07T22:00:09;95415.16;;;6.23;70.04
37892;BME280;45797;47.466;9.486;2022-12-07T22:05:11;95417.50;;;6.27;70.19
37892;BME280;45797;47.466;9.486;2022-12-07T22:10:12;95416.56;;;6.28;70.05
37892;BME280;45797;47.466;9.486;2022-12-07T22:15:29;95419.19;;;6.28;69.89
37892;BME280;45797;47.466;9.486;2022-12-07T22:20:32;95427.72;;;6.30;70.48
37892;BME280;45797;47.466;9.486;2022-12-07T22:25:33;95426.88;;;6.30;70.11
37892;BME280;45797;47.466;9.486;2022-12-07T22:30:38;95424.91;;;6.34;70.04
37892;BME280;45797;47.466;9.486;2022-12-07T22:35:43;95406.81;;;6.32;70.14
37892;BME280;45797;47.466;9.486;2022-12-07T22:40:50;95400.03;;;6.29;70.26
37892;BME280;45797;47.466;9.486;2022-12-07T22:45:58;95400.03;;;6.29;69.86
37892;BME280;45797;47.466;9.486;2022-12-07T22:51:00;95387.78;;;6.32;69.95
37892;BME280;45797;47.466;9.486;2022-12-07T22:56:01;95380.91;;;6.30;70.36
37892;BME280;45797;47.466;9.486;2022-12-07T23:01:16;95385.38;;;6.28;69.41
37892;BME280;45797;47.466;9.486;2022-12-07T23:06:22;95382.38;;;6.35;69.73
37892;BME280;45797;47.466;9.486;2022-12-07T23:11:27;95374.66;;;6.33;69.72
37892;BME280;45797;47.466;9.486;2022-12-07T23:16:53;95373.22;;;6.29;69.82
37892;BME280;45797;47.466;9.486;2022-12-07T23:21:56;95373.00;;;6.32;70.23
37892;BME280;45797;47.466;9.486;2022-12-07T23:27:02;95370.88;;;6.24;70.10
37892;BME280;45797;47.466;9.486;2022-12-07T23:32:04;95360.56;;;6.23;70.40
37892;BME280;45797;47.466;9.486;2022-12-07T23:37:10;95354.53;;;6.22;69.84
37892;BME280;45797;47.466;9.486;2022-12-07T23:42:35;95347.97;;;6.17;70.27
37892;BME280;45797;47.466;9.486;2022-12-07T23:47:36;95348.81;;;6.17;70.25
37892;BME280;45797;47.466;9.486;2022-12-07T23:52:37;95347.22;;;6.15;70.36
37892;BME280;45797;47.466;9.486;2022-12-07T23:57:46;95344.72;;;6.13;70.47
